Time;durP1;ratioP1;P1;durP2;ratioP2;P2;SDS_P1;SDS_P2;PMS_P1;PMS_P2;Temp;Humidity;BMP_temperature;BMP_pressure;BME280_temperature;BME280_humidity;BME280_pressure;Samples;Min_cycle;Max_cycle;Signal;HPM_P1;HPM_P2
2022/08/27 00:01:25;;;;;;;2.25;2.05;;;;;;;22.45;62.78;93086.84;4832671;29;20042;-88
2022/08/27 00:03:52;;;;;;;3.05;2.20;;;;;;;22.45;63.03;93078.59;4802691;29;20045;-87
2022/08/27 00:06:18;;;;;;;3.03;2.72;;;;;;;22.45;62.87;93075.84;4804497;29;20103;-87
2022/08/27 00:08:44;;;;;;;2.20;1.98;;;;;;;22.45;62.98;93075.09;4806391;29;20436;-87
2022/08/27 00:11:10;;;;;;;2.65;2.25;;;;;;;22.45;63.13;93069.59;4821122;29;20054;-91
2022/08/27 00:13:35;;;;;;;3.47;2.08;;;;;;;22.46;62.84;93079.34;4820245;29;20170;-87
2022/08/27 00:16:05;;;;;;;2.67;2.45;;;;;;;22.45;62.66;93073.09;4806235;29;20176;-91
2022/08/27 00:18:33;;;;;;;2.80;2.35;;;;;;;22.45;62.85;93075.84;4824160;29;20042;-87
2022/08/27 00:20:59;;;;;;;2.95;2.50;;;;;;;22.45;63.11;93066.84;4788050;29;20510;-88
2022/08/27 00:23:24;;;;;;;2.53;2.33;;;;;;;22.44;62.90;93062.59;4804271;29;20046;-88
2022/08/27 00:25:50;;;;;;;2.67;2.45;;;;;;;22.44;63.02;93071.59;4817306;29;20039;-89
2022/08/27 00:28:15;;;;;;;2.17;1.95;;;;;;;22.44;62.93;93076.38;4800927;29;20100;-87
2022/08/27 00:30:41;;;;;;;2.88;2.47;;;;;;;22.42;63.01;93079.69;4822648;29;20049;-88
2022/08/27 00:33:06;;;;;;;2.88;2.17;;;;;;;22.45;62.87;93077.84;4827446;29;20045;-93
2022/08/27 00:35:33;;;;;;;2.97;2.65;;;;;;;22.44;63.04;93085.38;4828139;29;20053;-91
2022/08/27 00:37:59;;;;;;;3.72;2.20;;;;;;;22.44;62.86;93079.13;4828866;29;20604;-90
2022/08/27 00:40:25;;;;;;;3.03;2.58;;;;;;;22.43;62.94;93072.16;4843319;29;20048;-90
2022/08/27 00:42:50;;;;;;;2.28;2.08;;;;;;;22.44;62.75;93062.59;4843377;29;20045;-87
2022/08/27 00:45:18;;;;;;;2.45;1.80;;;;;;;22.43;63.00;93066.66;4842892;29;20049;-89
2022/08/27 00:47:47;;;;;;;2.40;2.20;;;;;;;22.43;62.68;93070.13;4858532;29;20097;-89
2022/08/27 00:50:17;;;;;;;2.88;2.30;;;;;;;22.43;62.86;93066.66;4857874;29;20053;-88
2022/08/27 00:52:53;;;;;;;2.27;1.87;;;;;;;22.42;62.89;93060.41;4858518;29;20045;-91
2022/08/27 00:55:23;;;;;;;2.65;2.35;;;;;;;22.43;63.35;93061.13;4856546;29;20315;-91
2022/08/27 00:58:03;;;;;;;2.83;2.42;;;;;;;22.42;62.61;93068.66;4857432;29;20205;-89
2022/08/27 01:00:28;;;;;;;2.17;2.00;;;;;;;22.43;62.86;93080.41;4872315;29;20132;-87
2022/08/27 01:02:54;;;;;;;2.83;2.28;;;;;;;22.42;62.88;93067.94;4821618;29;20046;-87
2022/08/27 01:05:21;;;;;;;3.28;2.33;;;;;;;22.43;62.64;93066.66;4816214;29;20031;-89
2022/08/27 01:07:48;;;;;;;2.65;2.35;;;;;;;22.42;63.25;93092.72;4807606;29;20194;-90
2022/08/27 01:10:17;;;;;;;2.95;2.25;;;;;;;22.42;63.00;93079.69;4806223;29;20063;-87
2022/08/27 01:12:42;;;;;;;2.97;2.55;;;;;;;22.42;63.09;93074.16;4807066;29;20122;-87
2022/08/27 01:15:10;;;;;;;2.95;2.38;;;;;;;22.42;62.90;93087.22;4804914;29;20623;-88
2022/08/27 01:17:40;;;;;;;2.70;2.30;;;;;;;22.41;62.76;93086.47;4796461;29;20072;-89
2022/08/27 01:20:08;;;;;;;3.22;2.78;;;;;;;22.43;63.10;93088.69;4802401;29;20043;-91
2022/08/27 01:22:36;;;;;;;3.55;2.60;;;;;;;22.42;62.94;93096.22;4788576;29;20042;-89
2022/08/27 01:25:07;;;;;;;2.30;1.95;;;;;;;22.41;62.83;93099.50;4802882;29;20051;-90
2022/08/27 01:27:33;;;;;;;2.60;2.33;;;;;;;22.42;62.70;93087.94;4783743;29;20663;-89
2022/08/27 01:29:59;;;;;;;3.25;2.47;;;;;;;22.41;62.92;93103.00;4815338;29;20146;-88
2022/08/27 01:32:26;;;;;;;2.92;2.40;;;;;;;22.41;62.59;93102.25;4804454;29;20039;-88
2022/08/27 01:34:52;;;;;;;2.67;2.47;;;;;;;22.42;62.68;93112.00;4798999;29;20123;-87
2022/08/27 01:37:18;;;;;;;2.47;1.95;;;;;;;22.42;62.97;93103.72;4799585;29;20039;-89
2022/08/27 01:39:43;;;;;;;2.30;2.10;;;;;;;22.42;62.76;93104.47;4810903;29;20411;-88
2022/08/27 01:42:15;;;;;;;2.05;1.85;;;;;;;22.40;62.73;93104.28;4825271;29;20071;-88
2022/08/27 01:44:49;;;;;;;2.40;1.88;;;;;;;22.42;62.89;93100.97;4848387;29;20137;-89
2022/08/27 01:47:15;;;;;;;2.45;2.25;;;;;;;22.41;63.07;93094.00;4826953;29;20122;-88
2022/08/27 01:49:41;;;;;;;2.45;2.22;;;;;;;22.41;62.89;93096.75;4804377;29;20451;-87
2022/08/27 01:52:06;;;;;;;2.15;1.95;;;;;;;22.41;62.85;93105.00;4803982;29;20070;-89
2022/08/27 01:54:32;;;;;;;3.28;2.63;;;;;;;22.39;62.78;93105.56;4804115;29;20030;-87
2022/08/27 01:56:57;;;;;;;1.65;1.55;;;;;;;22.41;62.63;93110.53;4818216;29;20675;-87
2022/08/27 01:59:24;;;;;;;2.05;1.85;;;;;;;22.42;62.68;93112.00;4803438;29;20677;-92
2022/08/27 02:01:50;;;;;;;2.42;1.77;;;;;;;22.40;62.72;93101.53;4803897;29;20049;-92
2022/08/27 02:04:15;;;;;;;4.03;2.00;;;;;;;22.40;62.80;93106.28;4818173;29;20035;-88
2022/08/27 02:06:41;;;;;;;2.70;2.17;;;;;;;22.40;62.64;93112.53;4804062;29;20042;-87
2022/08/27 02:09:06;;;;;;;2.55;2.10;;;;;;;22.42;62.69;93106.50;4818686;29;20042;-92
2022/08/27 02:11:32;;;;;;;2.50;2.10;;;;;;;22.39;62.71;93108.31;4819325;29;20073;-88
2022/08/27 02:13:57;;;;;;;2.00;1.80;;;;;;;22.38;62.79;93101.31;4834229;29;20047;-87
2022/08/27 02:16:23;;;;;;;2.25;1.92;;;;;;;22.39;62.72;93108.31;4803066;29;20049;-90
2022/08/27 02:18:48;;;;;;;4.35;1.88;;;;;;;22.39;62.88;93100.03;4785986;29;20065;-88
2022/08/27 02:21:14;;;;;;;2.25;2.05;;;;;;;22.40;62.62;93103.53;4833130;29;20038;-88
2022/08/27 02:23:41;;;;;;;2.58;1.98;;;;;;;22.40;62.54;93092.53;4822423;29;20042;-87
2022/08/27 02:26:06;;;;;;;2.47;2.10;;;;;;;22.38;62.74;93097.84;4814024;29;20047;-90
2022/08/27 02:28:33;;;;;;;2.33;2.10;;;;;;;22.38;62.70;93101.31;4811842;29;20049;-87
2022/08/27 02:30:59;;;;;;;2.08;1.80;;;;;;;22.40;62.86;93095.28;4837422;29;20042;-87
2022/08/27 02:33:25;;;;;;;2.35;2.00;;;;;;;22.39;62.83;93104.81;4835731;29;20042;-93
2022/08/27 02:35:50;;;;;;;1.90;1.58;;;;;;;22.40;62.65;93107.03;4820998;29;20062;-87
2022/08/27 02:38:16;;;;;;;2.78;1.90;;;;;;;22.42;62.71;93100.97;4820780;29;20521;-87
2022/08/27 02:40:42;;;;;;;2.40;2.00;;;;;;;22.42;62.69;93092.72;4829097;29;20084;-88
2022/08/27 02:43:07;;;;;;;1.88;1.70;;;;;;;22.39;62.48;93094.53;4821243;29;20054;-88
2022/08/27 02:45:33;;;;;;;2.55;2.00;;;;;;;22.40;62.67;93095.28;4820220;29;20038;-87
2022/08/27 02:47:59;;;;;;;2.00;1.80;;;;;;;22.38;62.55;93098.56;4836773;29;20125;-89
2022/08/27 02:50:24;;;;;;;2.28;1.83;;;;;;;22.38;62.60;93095.81;4820942;29;20162;-88
2022/08/27 02:52:50;;;;;;;3.03;2.17;;;;;;;22.38;62.37;93092.31;4822063;29;20046;-90
2022/08/27 02:55:15;;;;;;;2.10;1.90;;;;;;;22.38;62.52;93097.84;4835724;29;20046;-88
2022/08/27 02:57:41;;;;;;;1.90;1.67;;;;;;;22.37;62.58;93093.59;4801762;29;20046;-91
2022/08/27 03:00:08;;;;;;;2.40;2.00;;;;;;;22.38;62.48;93093.06;4817538;29;20387;-89
2022/08/27 03:02:33;;;;;;;2.58;1.90;;;;;;;22.39;62.46;93088.28;4818294;29;20122;-88
2022/08/27 03:04:59;;;;;;;3.03;2.15;;;;;;;22.37;62.55;93071.56;4803132;29;20041;-87
2022/08/27 03:07:24;;;;;;;2.10;1.58;;;;;;;22.37;62.65;93079.84;4817201;29;20038;-88
2022/08/27 03:09:50;;;;;;;2.33;1.42;;;;;;;22.36;62.69;93079.09;4803416;29;20043;-89
2022/08/27 03:12:16;;;;;;;1.80;1.67;;;;;;;22.36;62.63;93084.59;4803162;29;20050;-88
2022/08/27 03:14:42;;;;;;;2.03;1.83;;;;;;;22.37;62.59;93074.31;4818387;29;20130;-89
2022/08/27 03:19:51;;;;;;;2.65;1.90;;;;;;;22.38;62.81;93084.81;4835883;29;20126;-88
2022/08/27 03:22:17;;;;;;;3.15;2.38;;;;;;;22.38;62.77;93086.81;4851549;29;20042;-90
2022/08/27 03:24:43;;;;;;;2.28;1.80;;;;;;;22.36;62.80;93073.59;4852354;29;20221;-87
2022/08/27 03:27:09;;;;;;;2.65;2.15;;;;;;;22.36;62.80;93081.84;4819567;29;20046;-90
2022/08/27 03:29:34;;;;;;;2.42;2.00;;;;;;;22.36;62.50;93075.59;4803026;29;20082;-87
2022/08/27 03:32:00;;;;;;;2.65;1.88;;;;;;;22.35;62.63;93072.13;4818316;29;20106;-88
2022/08/27 03:34:25;;;;;;;2.15;1.70;;;;;;;22.37;62.65;93088.09;4817672;29;20475;-88
2022/08/27 03:36:52;;;;;;;2.42;1.90;;;;;;;22.36;62.47;93079.09;4817524;29;20046;-88
2022/08/27 03:39:18;;;;;;;2.47;2.03;;;;;;;22.36;62.50;93081.13;4818652;29;20043;-88
2022/08/27 03:41:44;;;;;;;2.50;2.00;;;;;;;22.37;62.49;93077.09;4831866;29;20049;-87
2022/08/27 03:44:10;;;;;;;2.13;1.60;;;;;;;22.35;62.64;93074.88;4854016;29;20038;-88
2022/08/27 03:46:36;;;;;;;2.28;2.08;;;;;;;22.35;62.70;93085.88;4824128;29;20046;-88
2022/08/27 03:49:01;;;;;;;2.90;2.33;;;;;;;22.36;62.75;93084.59;4824758;29;20057;-88
2022/08/27 03:51:27;;;;;;;2.05;1.83;;;;;;;22.36;62.53;93084.59;4843412;29;20747;-88
2022/08/27 03:53:53;;;;;;;2.22;2.03;;;;;;;22.34;62.31;93067.88;4859516;29;20053;-88
2022/08/27 03:56:18;;;;;;;2.45;2.13;;;;;;;22.34;62.70;93064.41;4847564;29;20038;-88
2022/08/27 03:58:43;;;;;;;2.53;1.90;;;;;;;22.34;62.59;93067.16;4841529;29;20460;-88
2022/08/27 04:01:09;;;;;;;2.33;1.98;;;;;;;22.36;62.37;93057.06;4839909;29;20058;-87
2022/08/27 04:03:34;;;;;;;2.55;2.20;;;;;;;22.36;62.55;93070.09;4841315;29;20049;-89
2022/08/27 04:06:00;;;;;;;2.15;1.85;;;;;;;22.35;62.52;93063.84;4856372;29;20049;-89
2022/08/27 04:08:26;;;;;;;2.42;2.00;;;;;;;22.35;62.50;93068.63;4840054;29;20045;-88
2022/08/27 04:10:53;;;;;;;3.75;1.80;;;;;;;22.34;62.56;93075.41;4841130;29;20049;-89
2022/08/27 04:13:19;;;;;;;2.17;1.90;;;;;;;22.34;62.38;93084.41;4840748;29;20232;-92
2022/08/27 04:15:47;;;;;;;2.45;2.25;;;;;;;22.34;62.49;93081.66;4840645;29;20053;-88
2022/08/27 04:18:15;;;;;;;2.40;2.20;;;;;;;22.34;62.51;93075.41;4825398;29;20081;-87
2022/08/27 04:20:44;;;;;;;2.05;1.77;;;;;;;22.35;62.30;93085.88;4814659;29;20470;-92
2022/08/27 04:23:10;;;;;;;2.17;1.88;;;;;;;22.36;62.23;93083.88;4819753;29;20523;-87
2022/08/27 04:25:39;;;;;;;2.15;1.95;;;;;;;22.36;62.60;93094.88;4816124;29;20042;-89
2022/08/27 04:28:05;;;;;;;3.35;2.40;;;;;;;22.35;62.48;93090.66;4798306;29;20039;-88
2022/08/27 04:30:31;;;;;;;2.30;1.83;;;;;;;22.36;62.63;93095.63;4799362;29;20570;-89
2022/08/27 04:32:57;;;;;;;2.05;1.75;;;;;;;22.34;62.32;93087.16;4807778;29;20071;-88
2022/08/27 04:35:23;;;;;;;2.13;1.80;;;;;;;22.34;62.44;93089.91;4802171;29;20051;-88
2022/08/27 04:37:48;;;;;;;2.25;1.88;;;;;;;22.33;62.38;93082.94;4787230;29;20046;-87
2022/08/27 04:40:14;;;;;;;2.33;1.50;;;;;;;22.35;62.47;93087.91;4787024;29;20814;-87
2022/08/27 04:42:39;;;;;;;2.13;1.90;;;;;;;22.34;62.54;93089.91;4811045;29;20050;-90
2022/08/27 04:45:05;;;;;;;2.10;1.70;;;;;;;22.34;62.36;93100.94;4800647;29;20042;-87
2022/08/27 04:47:30;;;;;;;2.33;1.92;;;;;;;22.34;62.43;93097.44;4785478;29;20067;-88
2022/08/27 04:49:56;;;;;;;2.50;1.85;;;;;;;22.33;62.46;93096.72;4800995;29;20125;-87
2022/08/27 04:52:21;;;;;;;2.55;1.60;;;;;;;22.34;62.56;93100.94;4784108;29;20059;-91
2022/08/27 04:54:47;;;;;;;2.33;1.63;;;;;;;22.35;62.60;93090.66;4771159;29;20090;-90
2022/08/27 04:57:12;;;;;;;1.70;1.58;;;;;;;22.32;62.28;93095.22;4790359;29;20072;-88
2022/08/27 04:59:38;;;;;;;2.30;1.70;;;;;;;22.34;62.37;93094.69;4770885;29;20039;-89
2022/08/27 05:02:04;;;;;;;2.10;1.85;;;;;;;22.35;62.50;93083.13;4773397;29;20057;-90
2022/08/27 05:04:29;;;;;;;1.80;1.50;;;;;;;22.33;62.49;93085.69;4773671;29;20332;-88
2022/08/27 05:06:56;;;;;;;2.67;1.67;;;;;;;22.31;62.51;93091.00;4788808;29;20035;-93
2022/08/27 05:09:21;;;;;;;2.30;1.70;;;;;;;22.32;62.53;93089.00;4772742;29;20053;-88
2022/08/27 05:11:47;;;;;;;2.80;2.10;;;;;;;22.33;62.44;93096.72;4798399;29;20054;-87
2022/08/27 05:14:13;;;;;;;2.33;2.00;;;;;;;22.34;62.41;93097.44;4791213;29;20045;-88
2022/08/27 05:16:38;;;;;;;2.42;2.03;;;;;;;22.34;62.38;93092.69;4814107;29;20131;-88
2022/08/27 05:19:07;;;;;;;2.08;1.70;;;;;;;22.35;62.47;93098.91;4781836;29;20529;-88
2022/08/27 05:21:34;;;;;;;2.65;2.33;;;;;;;22.35;62.37;93109.94;4817335;29;20062;-93
2022/08/27 05:24:00;;;;;;;1.95;1.55;;;;;;;22.35;62.50;93112.69;4818619;29;20077;-88
2022/08/27 05:26:26;;;;;;;2.28;2.00;;;;;;;22.35;62.47;93115.44;4802320;29;20047;-87
2022/08/27 05:28:52;;;;;;;2.97;2.38;;;;;;;22.35;62.47;93115.44;4815288;29;20091;-89
2022/08/27 05:31:18;;;;;;;1.90;1.50;;;;;;;22.34;62.44;93117.47;4814750;29;20511;-87
2022/08/27 05:33:43;;;;;;;2.15;1.80;;;;;;;22.36;62.60;93112.16;4815118;29;20155;-92
2022/08/27 05:36:25;;;;;;;2.75;1.85;;;;;;;22.34;62.42;93125.72;4787775;29;20039;-87
2022/08/27 05:38:50;;;;;;;2.30;1.80;;;;;;;22.35;62.38;93123.69;4817943;29;20034;-87
2022/08/27 05:41:18;;;;;;;3.42;1.95;;;;;;;22.33;62.49;93127.00;4802162;29;20060;-87
2022/08/27 05:43:44;;;;;;;2.40;2.08;;;;;;;22.36;62.49;93125.91;4818689;29;20046;-87
2022/08/27 05:46:12;;;;;;;2.97;2.13;;;;;;;22.35;62.42;93127.19;4802204;29;20062;-89
2022/08/27 05:48:38;;;;;;;3.05;1.80;;;;;;;22.36;62.30;93130.69;4787515;29;20071;-88
2022/08/27 05:51:26;;;;;;;2.10;1.90;;;;;;;22.34;62.45;93120.22;4818757;29;20062;-88
2022/08/27 05:53:59;;;;;;;2.25;1.73;;;;;;;22.36;62.12;93125.91;4804577;29;20133;-88
2022/08/27 05:56:25;;;;;;;3.45;2.25;;;;;;;22.36;62.38;93127.94;4803238;29;20050;-89
2022/08/27 06:01:37;;;;;;;2.22;1.80;;;;;;;22.36;62.35;93134.19;4822373;29;20129;-88
2022/08/27 06:04:03;;;;;;;2.33;1.63;;;;;;;22.36;62.25;93125.91;4820108;29;20038;-88
2022/08/27 06:06:29;;;;;;;2.70;1.88;;;;;;;22.36;62.28;93138.94;4805343;29;20174;-87
2022/08/27 06:08:57;;;;;;;2.13;1.92;;;;;;;22.38;62.27;93136.38;4808343;29;20622;-92
2022/08/27 06:11:23;;;;;;;1.65;1.55;;;;;;;22.38;62.32;93130.88;4838473;29;20114;-88
2022/08/27 06:13:48;;;;;;;2.15;1.63;;;;;;;22.38;62.27;93136.38;4838357;29;20048;-88
2022/08/27 06:16:15;;;;;;;2.20;1.77;;;;;;;22.37;62.13;93127.41;4823415;29;20113;-88
2022/08/27 06:18:42;;;;;;;2.58;2.10;;;;;;;22.36;62.37;93141.69;4820822;29;20500;-88
2022/08/27 06:21:08;;;;;;;2.72;1.45;;;;;;;22.37;62.15;93137.66;4813164;29;20064;-89
2022/08/27 06:23:33;;;;;;;2.08;1.70;;;;;;;22.37;62.00;93141.16;4857103;29;20045;-89
2022/08/27 06:25:59;;;;;;;1.60;1.30;;;;;;;22.36;62.28;93136.94;4843187;29;20080;-92
2022/08/27 06:28:28;;;;;;;1.85;1.30;;;;;;;22.37;62.27;93130.16;4853398;29;20093;-88
2022/08/27 06:31:04;;;;;;;1.70;1.42;;;;;;;22.38;62.37;93136.38;4821356;29;20529;-88
2022/08/27 06:33:30;;;;;;;1.95;1.55;;;;;;;22.39;62.09;93138.59;4817946;29;20563;-88
2022/08/27 06:35:58;;;;;;;2.05;1.65;;;;;;;22.40;62.31;93145.59;4818569;29;20669;-87
2022/08/27 06:38:24;;;;;;;1.80;1.45;;;;;;;22.41;62.18;93149.81;4818614;29;20114;-87
2022/08/27 06:40:50;;;;;;;2.25;1.60;;;;;;;22.42;62.23;93145.03;4822043;29;20042;-89
2022/08/27 06:43:15;;;;;;;2.50;1.70;;;;;;;22.42;62.01;93142.28;4851325;29;20046;-88
2022/08/27 06:45:41;;;;;;;1.70;1.42;;;;;;;22.44;62.12;93148.00;4806410;29;20512;-93
2022/08/27 06:48:06;;;;;;;1.65;1.30;;;;;;;22.45;62.02;93149.47;4799952;29;20343;-89
2022/08/27 06:50:37;;;;;;;1.67;1.13;;;;;;;22.43;62.03;93150.00;4815194;29;20974;-88
2022/08/27 06:53:03;;;;;;;1.75;1.30;;;;;;;22.46;61.99;93159.22;4802116;29;20752;-89
2022/08/27 06:55:28;;;;;;;2.38;1.35;;;;;;;22.45;61.75;93158.47;4833098;29;20574;-88
2022/08/27 06:57:55;;;;;;;1.50;1.27;;;;;;;22.46;61.96;93156.47;4826963;29;20038;-87
2022/08/27 07:00:20;;;;;;;2.65;1.40;;;;;;;22.44;62.00;93156.25;4821124;29;20085;-88
2022/08/27 07:02:46;;;;;;;1.45;1.30;;;;;;;22.44;61.93;93161.78;4836369;29;20086;-88
2022/08/27 07:05:11;;;;;;;1.42;1.33;;;;;;;22.47;61.69;93164.19;4826171;29;20042;-88
2022/08/27 07:07:37;;;;;;;1.45;1.35;;;;;;;22.49;61.96;93156.13;4818249;29;20066;-88
2022/08/27 07:10:03;;;;;;;1.55;1.20;;;;;;;22.50;61.74;93157.59;4826398;29;20050;-88
2022/08/27 07:12:28;;;;;;;1.55;1.27;;;;;;;22.49;61.70;93152.63;4820572;29;20047;-90
2022/08/27 07:14:54;;;;;;;2.00;1.40;;;;;;;22.51;61.62;93164.56;4836550;29;20034;-87
2022/08/27 07:17:19;;;;;;;1.52;1.00;;;;;;;22.52;61.58;93149.50;4821250;29;20037;-90
2022/08/27 07:19:45;;;;;;;1.42;0.82;;;;;;;22.53;61.41;93147.47;4821316;29;20049;-88
2022/08/27 07:22:11;;;;;;;1.20;0.90;;;;;;;22.54;61.66;93154.47;4807249;29;20045;-88
2022/08/27 07:24:37;;;;;;;2.55;1.40;;;;;;;22.55;61.72;93142.91;4817481;29;20075;-89
2022/08/27 07:27:03;;;;;;;1.25;0.90;;;;;;;22.60;61.37;93151.56;4819897;29;20049;-89
2022/08/27 07:29:28;;;;;;;1.05;0.85;;;;;;;22.57;61.81;93150.63;4836626;29;20042;-88
2022/08/27 07:31:54;;;;;;;1.48;0.90;;;;;;;22.58;61.67;93154.84;4805496;29;20044;-87
2022/08/27 07:34:19;;;;;;;1.40;1.30;;;;;;;22.61;61.43;93158.53;4814265;29;20042;-87
2022/08/27 07:36:44;;;;;;;1.40;1.20;;;;;;;22.61;61.22;93155.78;4803530;29;20042;-88
2022/08/27 07:39:12;;;;;;;1.60;1.50;;;;;;;22.62;61.27;93157.25;4818266;29;20060;-89
2022/08/27 07:44:26;;;;;;;2.10;1.40;;;;;;;22.62;61.45;93154.50;4837841;29;20061;-87
2022/08/27 07:46:54;;;;;;;3.40;1.33;;;;;;;22.62;61.27;93155.25;4820674;29;20576;-88
2022/08/27 07:49:21;;;;;;;1.67;1.20;;;;;;;22.63;61.39;93153.22;4801308;29;20354;-87
2022/08/27 07:51:46;;;;;;;1.30;1.15;;;;;;;22.63;61.63;93147.72;4799599;29;20070;-87
2022/08/27 07:54:12;;;;;;;1.55;1.17;;;;;;;22.66;61.30;93152.13;4801892;29;20056;-88
2022/08/27 07:56:37;;;;;;;1.88;1.25;;;;;;;22.65;61.38;93156.91;4818430;29;20507;-87
2022/08/27 07:59:03;;;;;;;1.42;1.23;;;;;;;22.66;61.08;93154.88;4833891;29;20407;-89
2022/08/27 08:01:28;;;;;;;3.95;1.60;;;;;;;22.67;61.19;93146.09;4818113;29;20046;-89
2022/08/27 08:03:54;;;;;;;36.40;8.88;;;;;;;22.66;61.20;93158.38;4833164;29;20510;-87
2022/08/27 08:06:20;;;;;;;86.57;15.10;;;;;;;22.71;61.38;93162.25;4831992;29;20407;-93
2022/08/27 08:08:46;;;;;;;49.38;10.60;;;;;;;22.72;61.21;93167.22;4818769;29;20067;-90
2022/08/27 08:11:12;;;;;;;20.90;5.97;;;;;;;22.72;61.07;93167.22;4846357;29;20057;-87
2022/08/27 08:13:38;;;;;;;4.90;1.63;;;;;;;22.73;60.94;93167.97;4823472;29;20128;-88
2022/08/27 08:16:04;;;;;;;12.80;3.28;;;;;;;22.73;60.81;93174.22;4817475;29;20038;-87
2022/08/27 08:18:29;;;;;;;9.10;2.70;;;;;;;22.74;61.15;93180.44;4828739;29;20647;-87
2022/08/27 08:21:08;;;;;;;11.77;2.75;;;;;;;22.71;61.14;93173.28;4836069;29;20042;-92
2022/08/27 08:23:34;;;;;;;11.85;2.88;;;;;;;22.72;61.20;93186.53;4811680;29;20050;-88
2022/08/27 08:26:00;;;;;;;11.02;4.15;;;;;;;22.72;61.47;93189.28;4817893;29;20123;-87
2022/08/27 08:28:27;;;;;;;22.98;6.18;;;;;;;22.71;61.55;93185.03;4820689;29;20046;-86
2022/08/27 08:30:53;;;;;;;33.42;8.73;;;;;;;22.70;61.16;93191.09;4820360;29;20498;-87
2022/08/27 08:33:19;;;;;;;24.98;10.50;;;;;;;22.71;61.34;93193.31;4819845;29;20498;-87
2022/08/27 08:35:44;;;;;;;52.03;13.85;;;;;;;22.70;61.07;93200.09;4835563;29;20070;-90
2022/08/27 08:38:10;;;;;;;65.50;14.77;;;;;;;22.70;61.20;93193.84;4835759;29;20043;-86
2022/08/27 08:40:39;;;;;;;65.88;19.27;;;;;;;22.71;61.07;93187.06;4822659;29;20042;-88
2022/08/27 08:43:05;;;;;;;61.22;15.55;;;;;;;22.72;61.22;93205.06;4838988;29;20046;-88
2022/08/27 08:45:33;;;;;;;38.38;13.02;;;;;;;22.72;61.51;93205.06;4823684;29;20066;-87
2022/08/27 08:48:11;;;;;;;30.33;11.32;;;;;;;22.68;61.25;93212.94;4854714;29;20570;-89
2022/08/27 08:51:05;;;;;;;32.30;11.32;;;;;;;22.69;61.23;93211.66;4823099;29;20038;-88
2022/08/27 08:53:32;;;;;;;28.40;10.45;;;;;;;22.70;61.07;93211.13;4830859;29;20467;-89
2022/08/27 08:56:00;;;;;;;34.15;12.73;;;;;;;22.70;61.19;93213.16;4826773;29;20050;-87
2022/08/27 08:58:33;;;;;;;46.80;12.07;;;;;;;22.69;61.29;93211.66;4828140;29;20179;-86
2022/08/27 09:01:00;;;;;;;39.53;13.35;;;;;;;22.72;61.08;93210.59;4816914;29;20051;-87
2022/08/27 09:03:26;;;;;;;41.20;13.55;;;;;;;22.72;61.50;93216.09;4801635;29;20070;-89
2022/08/27 09:06:01;;;;;;;46.45;15.18;;;;;;;22.70;61.26;93215.91;4817612;29;20066;-90
2022/08/27 09:08:35;;;;;;;37.28;11.38;;;;;;;22.72;61.14;93210.59;4801610;29;20076;-87
2022/08/27 09:11:08;;;;;;;32.97;11.93;;;;;;;22.71;61.32;93209.84;4831123;29;20098;-87
2022/08/27 09:13:37;;;;;;;31.17;12.27;;;;;;;22.73;61.19;93209.31;4810108;29;20076;-88
2022/08/27 09:16:03;;;;;;;31.30;12.05;;;;;;;22.75;61.10;93204.69;4805013;29;20050;-87
2022/08/27 09:18:30;;;;;;;34.60;11.90;;;;;;;22.74;61.32;93208.00;4818305;29;20065;-87
2022/08/27 09:21:05;;;;;;;32.08;12.18;;;;;;;22.73;60.99;93212.78;4823557;29;20100;-88
2022/08/27 09:23:39;;;;;;;26.95;12.52;;;;;;;22.76;61.05;93216.47;4800697;29;20054;-87
2022/08/27 09:26:22;;;;;;;32.33;13.23;;;;;;;22.74;61.27;93225.28;4817007;29;20129;-91
2022/08/27 09:31:34;;;;;;;42.28;13.38;;;;;;;22.76;61.28;93211.69;4839265;29;20073;-86
2022/08/27 09:34:00;;;;;;;46.20;14.40;;;;;;;22.80;61.03;93206.59;4821102;29;20042;-86
2022/08/27 09:36:25;;;;;;;41.95;12.60;;;;;;;22.81;61.02;93205.31;4818733;29;20155;-86
2022/08/27 09:38:56;;;;;;;32.15;13.60;;;;;;;22.79;60.96;93207.88;4804641;29;20041;-86
2022/08/27 09:41:27;;;;;;;33.88;12.18;;;;;;;22.77;61.04;93210.44;4826716;29;20037;-86
2022/08/27 09:44:07;;;;;;;31.55;13.00;;;;;;;22.76;61.10;93202.69;4807554;29;20604;-88
2022/08/27 09:46:32;;;;;;;34.85;13.82;;;;;;;22.80;60.99;93205.84;4808936;29;20049;-86
2022/08/27 09:49:10;;;;;;;31.67;15.68;;;;;;;22.79;61.07;93205.13;4838530;29;20078;-86
2022/08/27 09:51:38;;;;;;;48.25;19.73;;;;;;;22.82;60.99;93208.81;4822230;29;20037;-86
2022/08/27 09:54:05;;;;;;;54.25;26.65;;;;;;;22.81;61.11;93202.56;4823909;29;20049;-86
2022/08/27 09:56:40;;;;;;;54.60;24.30;;;;;;;22.80;61.08;93197.59;4804323;29;20062;-86
2022/08/27 09:59:26;;;;;;;56.08;28.67;;;;;;;22.85;60.78;93202.22;4834338;29;20418;-87
2022/08/27 10:02:11;;;;;;;56.75;26.45;;;;;;;22.80;61.01;93192.06;4819796;29;20118;-88
2022/08/27 10:04:48;;;;;;;88.63;33.63;;;;;;;22.84;60.84;93201.47;4816423;29;20042;-87
2022/08/27 10:07:43;;;;;;;62.45;33.67;;;;;;;22.81;60.71;93197.03;4804147;29;20046;-86
2022/08/27 10:10:24;;;;;;;74.85;40.13;;;;;;;22.81;60.96;93201.81;4822509;29;20051;-86
2022/08/27 10:12:50;;;;;;;92.88;46.90;;;;;;;22.86;60.94;93198.91;4814362;29;20129;-86
2022/08/27 10:15:15;;;;;;;91.82;46.80;;;;;;;22.84;60.97;93189.72;4822453;29;20187;-88
2022/08/27 10:17:53;;;;;;;84.70;46.38;;;;;;;22.81;61.09;93197.03;4841508;29;20083;-86
2022/08/27 10:20:24;;;;;;;102.65;50.88;;;;;;;22.84;60.81;93195.97;4840237;29;20050;-86
2022/08/27 10:23:26;;;;;;;94.95;50.05;;;;;;;22.80;61.09;93194.84;4823934;29;20040;-88
2022/08/27 10:26:08;;;;;;;102.55;52.00;;;;;;;22.80;61.15;93197.59;4804330;29;20050;-87
2022/08/27 10:28:46;;;;;;;106.57;49.08;;;;;;;22.82;61.20;93192.28;4803937;29;20042;-86
2022/08/27 10:31:41;;;;;;;129.40;50.63;;;;;;;22.80;61.19;93190.06;4842495;29;20102;-86
2022/08/27 10:34:28;;;;;;;250.05;65.15;;;;;;;22.80;61.18;93198.31;4818514;29;20076;-87
2022/08/27 10:37:12;;;;;;;186.15;58.45;;;;;;;22.82;61.17;93192.28;4820560;29;20079;-86
2022/08/27 10:39:53;;;;;;;188.55;59.65;;;;;;;22.81;61.04;93191.53;4820501;29;20058;-87
2022/08/27 10:42:20;;;;;;;196.68;64.25;;;;;;;22.83;61.03;93194.47;4819776;29;20073;-86
2022/08/27 10:45:04;;;;;;;137.98;56.75;;;;;;;22.83;61.23;93193.75;4820328;29;20049;-86
2022/08/27 10:47:29;;;;;;;138.88;49.70;;;;;;;22.88;60.85;93187.34;4830660;29;20060;-88
2022/08/27 10:50:03;;;;;;;115.30;49.90;;;;;;;22.85;61.09;93199.44;4853687;29;20418;-87
2022/08/27 10:52:51;;;;;;;106.18;42.33;;;;;;;22.85;60.81;93199.44;4828941;29;20084;-86
2022/08/27 10:55:32;;;;;;;88.97;46.08;;;;;;;22.85;61.08;93188.44;4835119;29;20091;-86
2022/08/27 10:58:24;;;;;;;83.50;44.05;;;;;;;22.86;61.15;93192.66;4820355;29;20115;-89
2022/08/27 11:01:13;;;;;;;81.38;42.53;;;;;;;22.83;61.11;93186.22;4820969;29;20042;-85
2022/08/27 11:03:47;;;;;;;97.95;44.90;;;;;;;22.89;60.93;93188.81;4830030;29;20050;-88
2022/08/27 11:06:26;;;;;;;89.40;44.30;;;;;;;22.85;61.10;93197.44;4820812;29;20556;-87
2022/08/27 11:08:56;;;;;;;86.65;44.67;;;;;;;22.86;61.10;93185.13;4821639;29;20117;-87
2022/08/27 11:11:33;;;;;;;86.53;48.63;;;;;;;22.84;61.18;93184.19;4819878;29;20080;-89
2022/08/27 11:13:59;;;;;;;94.22;48.63;;;;;;;22.87;61.08;93177.59;4822819;29;20107;-88
2022/08/27 11:16:36;;;;;;;87.85;44.92;;;;;;;22.86;61.12;93189.91;4837343;29;20049;-86
2022/08/27 11:19:09;;;;;;;89.57;47.28;;;;;;;22.85;61.11;93183.66;4822842;29;20050;-87
2022/08/27 11:22:00;;;;;;;85.13;47.60;;;;;;;22.84;61.06;93181.44;4824497;29;20072;-87
2022/08/27 11:24:27;;;;;;;93.93;47.60;;;;;;;22.88;61.02;93184.59;4831089;29;20322;-87
2022/08/27 11:26:55;;;;;;;85.75;45.22;;;;;;;22.88;61.09;93177.06;4837217;29;20465;-85
2022/08/27 11:29:24;;;;;;;92.85;46.75;;;;;;;22.88;60.96;93177.06;4817629;29;20511;-87
2022/08/27 11:31:55;;;;;;;85.95;44.70;;;;;;;22.88;61.05;93165.28;4833241;29;20046;-86
2022/08/27 11:34:38;;;;;;;80.05;44.70;;;;;;;22.86;61.18;93174.09;4835708;29;20038;-86
2022/08/27 11:37:12;;;;;;;83.72;41.15;;;;;;;22.87;61.22;93166.56;4835641;29;20042;-88
2022/08/27 11:39:41;;;;;;;77.30;41.40;;;;;;;22.90;60.90;93162.72;4835603;29;20508;-86
2022/08/27 11:42:26;;;;;;;75.20;41.63;;;;;;;22.86;60.66;93168.59;4850063;29;20194;-86
2022/08/27 11:44:55;;;;;;;64.05;37.00;;;;;;;22.92;60.88;93156.66;4841758;29;20052;-88
2022/08/27 11:47:23;;;;;;;69.80;39.17;;;;;;;22.90;60.93;93157.94;4834978;29;20068;-86